Sturgeon Bay, WI (54235)

11:58 PM CDT on July 24, 2014 (GMT -0500)
Leif Everson Observatory (KWISTURG1) Elev 636 ft | 44.83 °N, 87.34 °W | Change Station

Current weather conditions updated 5 minutes ago

Mostly Cloudy
Mostly Cloudy
61.2 °F
Feels Like 61.2 °F
N
3.0
Wind Variable Wind from SSW
Gusts 3.0 mph

Tomorrow is forecast to be nearly the same temperature as today. Showers possible in the afternoon.

Today
High -- | Low -- °F
--% Chance of Precip.
Yesterday
High -- | Low -- °F
Precip. -- in
5:26 AM 8:24 PM
Waning Crescent, 3% visible
Pressure 30.03 in
Visibility 10.0 miles
Clouds Mostly Cloudy 6500 ft
Dew Point 46 °F
Humidity 57%
Rainfall 0.00 in
Snow Depth Not available.
UV 0.0 out of 12
Pollen 6.00 out of 12
Air Quality Not available.
Flu Activity Not available.
METAR KSUE 250435Z AUTO 20009KT 10SM BKN065 16/06 A3003 RMK AO1

More Conditions Fewer Conditions

Pressure 30.03 in
Visibility 10.0 miles
Clouds Mostly Cloudy 6500 ft
Dew Point 46 °F
Humidity 57%
Rainfall 0.00 in
Snow Depth Not available.
UV 0.0 out of 12
Pollen 6.00 out of 12
Air Quality Not available.
Flu Activity Not available.
METAR KSUE 250435Z AUTO 20009KT 10SM BKN065 16/06 A3003 RMK AO1

More Conditions Fewer Conditions

10-Day Weather Forecast

Almanac

Astronomy

Jul. 24, 2014 Rise Set
Actual Time 5:26 AM CDT 8:24 PM CDT
Civil Twilight 4:51 AM CDT 8:59 PM CDT
Nautical Twilight 4:07 AM CDT 9:43 PM CDT
Astronomical Twilight 3:14 AM CDT 10:35 PM CDT
Moon 3:35 AM CDT (7/24) 6:38 PM CDT (7/24)
Length of Visible Light 16h 07m
Length of Day
14h 58m
Tomorrow will be 2m 6s shorter.
Waning Crescent, 3% of the Moon is Illuminated
Jul 25
Waning Crescent
Jul 26
New
Aug 3
First Quarter
Aug 10
Full
Aug 17
Last Quarter

Yesterday's Extremes

State Highs State Lows

Community

WunderPhotos

Upload Photos

1,737,244 photos uploaded!

Nearby

Snow Depth

Station Depth Elevation
No new snow has been reported.

Earthquake Activity

City Distance Mag. Time & Date
No recent earthquake activity has been reported nearby.
Minimum magnitude displayed is 2.5.

Coastal Water Temperatures

Place Temperature
No Stations Reporting

Nearby Weather Stations

Station Location Temp. Dew Point Humidity Wind Precip. Elev Updated Type
Leif Everson Observatory, Sturgeon Bay, WI 61.2 °F 46 °F 57% SSW  at  3.0 mph 0.00 in / hr 636 ft 11:52 PM CDT Normal
Egg Harbor WI, Egg Harbor, WI 63.0 °F 50 °F 63% SW  at  2.0 mph 0.00 in / hr 650 ft 11:57 PM CDT Normal
Tyco Fire Protection, Marinette, WI 64.4 °F 51 °F 62% South  at  4.0 mph 0.00 in / hr 617 ft 11:58 PM CDT Normal

Show More Stations Show Fewer Stations